Time;durP1;ratioP1;P1;durP2;ratioP2;P2;SDS_P1;SDS_P2;PMS_P1;PMS_P2;Temp;Humidity;BMP_temperature;BMP_pressure;BME280_temperature;BME280_humidity;BME280_pressure;Samples;Min_cycle;Max_cycle;Signal;HPM_P1;HPM_P2
2022/10/23 00:01:39;;;;;;;16.42;11.73;;;10.50;99.90;;;;;;4984915;28;20039;-84
2022/10/23 00:04:14;;;;;;;13.30;10.68;;;10.40;99.90;;;;;;4985278;28;20496;-84
2022/10/23 00:06:42;;;;;;;16.67;12.27;;;10.80;99.90;;;;;;4970516;28;20073;-86
2022/10/23 00:09:09;;;;;;;31.15;17.60;;;10.50;99.90;;;;;;4971569;28;20086;-85
2022/10/23 00:11:35;;;;;;;16.85;13.63;;;10.50;99.90;;;;;;4988342;28;20047;-86
2022/10/23 00:14:02;;;;;;;22.02;13.63;;;10.50;99.90;;;;;;4971964;28;20038;-84
2022/10/23 00:16:28;;;;;;;16.15;11.45;;;10.60;99.90;;;;;;4985289;28;20116;-84
2022/10/23 00:18:55;;;;;;;18.42;12.98;;;10.50;99.90;;;;;;4982947;28;20510;-84
2022/10/23 00:21:21;;;;;;;21.02;12.75;;;10.50;99.90;;;;;;4972807;28;20038;-84
2022/10/23 00:23:47;;;;;;;21.48;15.80;;;10.60;99.90;;;;;;4994242;28;20124;-84
2022/10/23 00:26:15;;;;;;;27.00;18.35;;;10.60;99.90;;;;;;5010776;28;20463;-84
2022/10/23 00:28:48;;;;;;;26.38;17.83;;;10.90;99.90;;;;;;4987832;28;20402;-84
2022/10/23 00:31:13;;;;;;;21.33;15.07;;;10.60;99.90;;;;;;4985800;28;20037;-84
2022/10/23 00:33:45;;;;;;;21.80;15.48;;;10.60;99.90;;;;;;4978200;28;20124;-84
2022/10/23 00:36:38;;;;;;;26.00;16.20;;;10.60;99.90;;;;;;4988839;28;20089;-88
2022/10/23 00:39:04;;;;;;;23.17;15.55;;;10.70;99.90;;;;;;4996603;28;20042;-84
2022/10/23 00:41:32;;;;;;;19.52;14.35;;;10.60;99.90;;;;;;4990707;28;20037;-84
2022/10/23 00:44:06;;;;;;;23.48;15.63;;;10.60;99.90;;;;;;4972695;28;20245;-84
2022/10/23 00:47:03;;;;;;;19.13;15.00;;;10.60;99.90;;;;;;4990304;28;20077;-85
2022/10/23 00:50:00;;;;;;;28.58;13.70;;;11.20;99.90;;;;;;4991475;28;20065;-88
2022/10/23 00:52:26;;;;;;;20.80;13.10;;;10.70;99.90;;;;;;4977745;28;20033;-84
2022/10/23 00:54:52;;;;;;;24.50;12.85;;;10.60;99.90;;;;;;4978348;28;20042;-87
2022/10/23 00:57:17;;;;;;;19.27;12.90;;;10.60;99.90;;;;;;4991675;28;20121;-84
2022/10/23 00:59:43;;;;;;;18.58;14.38;;;10.50;99.90;;;;;;4976552;28;20038;-85
2022/10/23 01:02:09;;;;;;;14.52;12.07;;;10.50;99.90;;;;;;4979198;28;20053;-84
2022/10/23 01:04:36;;;;;;;291.33;30.27;;;10.60;99.90;;;;;;4993125;28;20194;-85
2022/10/23 01:07:17;;;;;;;29.23;15.73;;;10.60;99.90;;;;;;4979361;28;20045;-84
2022/10/23 01:09:58;;;;;;;16.65;13.50;;;10.90;99.90;;;;;;4989756;28;20072;-86
2022/10/23 01:12:26;;;;;;;22.55;16.27;;;10.60;99.90;;;;;;5010859;28;20057;-84
2022/10/23 01:15:06;;;;;;;19.73;16.00;;;10.70;99.90;;;;;;4990338;28;20048;-87
2022/10/23 01:17:48;;;;;;;16.55;13.65;;;10.70;99.90;;;;;;4990940;28;20046;-84
2022/10/23 01:20:32;;;;;;;19.52;13.02;;;10.60;99.90;;;;;;4993147;28;20461;-84
2022/10/23 01:23:25;;;;;;;24.52;17.38;;;10.70;99.90;;;;;;4977338;28;20505;-85
2022/10/23 01:26:00;;;;;;;26.92;17.27;;;10.70;99.90;;;;;;4972721;28;20070;-84
2022/10/23 01:28:55;;;;;;;36.55;20.08;;;10.20;99.90;;;;;;4975265;28;20038;-84
2022/10/23 01:31:29;;;;;;;27.92;17.15;;;10.80;99.90;;;;;;4991663;28;20091;-84
2022/10/23 01:33:59;;;;;;;20.13;15.75;;;10.80;99.90;;;;;;5006371;28;20489;-84
2022/10/23 01:36:28;;;;;;;16.75;14.75;;;10.80;99.90;;;;;;4977110;28;20042;-86
2022/10/23 01:39:01;;;;;;;20.70;14.18;;;10.80;99.90;;;;;;4991567;28;20042;-84
2022/10/23 01:41:38;;;;;;;25.40;17.17;;;10.90;99.90;;;;;;4982684;28;20062;-85
2022/10/23 01:44:16;;;;;;;23.58;16.33;;;10.80;99.90;;;;;;5004743;28;20034;-84
2022/10/23 01:46:44;;;;;;;23.88;15.82;;;10.90;99.90;;;;;;4992156;28;20038;-85
2022/10/23 01:49:12;;;;;;;30.92;18.25;;;11.20;99.90;;;;;;4994748;28;20053;-86
2022/10/23 01:51:40;;;;;;;21.83;16.40;;;11.20;99.90;;;;;;4988090;28;20112;-84
2022/10/23 01:54:09;;;;;;;23.25;17.05;;;11.00;99.90;;;;;;4988904;28;20439;-84
2022/10/23 01:56:42;;;;;;;18.98;14.63;;;11.00;99.90;;;;;;4990783;28;20038;-85
2022/10/23 01:59:13;;;;;;;26.60;17.70;;;11.10;99.90;;;;;;4990508;28;20042;-84
2022/10/23 02:01:45;;;;;;;24.33;18.02;;;11.00;99.90;;;;;;4991669;28;20046;-84
2022/10/23 02:04:17;;;;;;;21.73;16.05;;;10.60;99.90;;;;;;4990032;28;20038;-84
2022/10/23 02:06:42;;;;;;;23.00;14.07;;;10.90;99.90;;;;;;4990995;28;20117;-89
2022/10/23 02:09:10;;;;;;;28.25;17.33;;;10.90;99.90;;;;;;4989190;28;20169;-85
2022/10/23 02:11:43;;;;;;;15.85;13.25;;;10.90;99.90;;;;;;4992517;28;20065;-87
2022/10/23 02:14:35;;;;;;;26.50;18.17;;;10.80;99.90;;;;;;4977173;28;20063;-84
2022/10/23 02:17:41;;;;;;;27.50;15.93;;;10.80;99.90;;;;;;4973774;28;20034;-85
2022/10/23 02:20:19;;;;;;;20.25;13.40;;;10.70;99.90;;;;;;4962233;28;20124;-86
2022/10/23 02:23:01;;;;;;;13.32;11.57;;;10.80;99.90;;;;;;4989064;28;20686;-85
2022/10/23 02:25:34;;;;;;;17.35;12.70;;;10.70;99.90;;;;;;4993553;28;20881;-85
2022/10/23 02:28:06;;;;;;;18.70;13.93;;;10.80;99.90;;;;;;4990356;28;20038;-84
2022/10/23 02:30:34;;;;;;;23.10;15.32;;;10.70;99.90;;;;;;5002843;28;20065;-85
2022/10/23 02:33:04;;;;;;;22.48;17.13;;;11.40;99.90;;;;;;4974783;28;20121;-84
2022/10/23 02:35:30;;;;;;;30.40;18.38;;;10.80;99.90;;;;;;4977886;28;20076;-84
2022/10/23 02:37:59;;;;;;;24.85;15.85;;;10.80;99.90;;;;;;4974430;28;20069;-85
2022/10/23 02:40:34;;;;;;;30.38;16.65;;;10.80;99.90;;;;;;4978171;28;20410;-84
2022/10/23 02:43:20;;;;;;;24.48;15.07;;;10.80;99.90;;;;;;5006233;28;20550;-85
2022/10/23 02:45:58;;;;;;;23.45;15.18;;;10.80;99.90;;;;;;5004532;28;20068;-84
2022/10/23 02:48:47;;;;;;;24.45;15.85;;;10.80;99.90;;;;;;4990435;28;20042;-84
2022/10/23 02:51:43;;;;;;;19.88;13.77;;;10.70;99.90;;;;;;4989489;28;20041;-83
2022/10/23 02:54:39;;;;;;;27.77;16.42;;;10.70;99.90;;;;;;4973750;28;20045;-86
2022/10/23 02:57:11;;;;;;;;;;;10.60;99.90;;;;;;4967925;28;21447;-84
2022/10/23 02:59:56;;;;;;;20.67;14.95;;;10.60;99.90;;;;;;4992928;28;19917;-84
2022/10/23 03:02:55;;;;;;;17.75;14.00;;;10.60;99.90;;;;;;4988057;28;20516;-84
2022/10/23 03:05:32;;;;;;;20.55;12.63;;;10.50;99.90;;;;;;4973094;28;20026;-84
2022/10/23 03:07:58;;;;;;;19.58;14.05;;;10.50;99.90;;;;;;5007975;28;20137;-84
2022/10/23 03:10:27;;;;;;;21.33;13.55;;;10.50;99.90;;;;;;4975556;28;20113;-84
2022/10/23 03:13:00;;;;;;;23.15;14.07;;;10.60;99.90;;;;;;5005452;28;20026;-85
2022/10/23 03:15:28;;;;;;;23.35;13.63;;;10.60;99.90;;;;;;4989129;28;20408;-84
2022/10/23 03:17:54;;;;;;;17.67;12.40;;;10.60;99.90;;;;;;4972649;28;20038;-88
2022/10/23 03:20:21;;;;;;;19.73;14.05;;;10.50;99.90;;;;;;4970691;28;20087;-84
2022/10/23 03:22:47;;;;;;;26.98;15.50;;;10.60;99.90;;;;;;4971327;28;20038;-86
2022/10/23 03:25:13;;;;;;;25.88;15.88;;;10.60;99.90;;;;;;4972903;28;20037;-84
2022/10/23 03:27:42;;;;;;;23.77;15.38;;;10.60;99.90;;;;;;4973182;28;20367;-85
2022/10/23 03:30:18;;;;;;;17.23;13.93;;;11.30;99.90;;;;;;4962135;28;20040;-84
2022/10/23 03:32:48;;;;;;;24.27;16.40;;;10.70;99.90;;;;;;4990885;28;20121;-86
2022/10/23 03:35:16;;;;;;;19.38;14.27;;;10.70;99.90;;;;;;4971490;28;20489;-85
2022/10/23 03:37:44;;;;;;;26.27;16.13;;;10.70;99.90;;;;;;4974078;28;20042;-86
2022/10/23 03:40:10;;;;;;;21.77;14.38;;;10.70;99.90;;;;;;4961175;28;20037;-85
2022/10/23 03:42:39;;;;;;;26.58;16.95;;;10.70;99.90;;;;;;5007485;28;20053;-85
2022/10/23 03:45:08;;;;;;;21.13;15.55;;;10.70;99.90;;;;;;4957886;28;20050;-85
2022/10/23 03:47:40;;;;;;;27.98;17.83;;;10.70;99.90;;;;;;4989100;28;20038;-84
2022/10/23 03:50:28;;;;;;;24.50;14.52;;;10.70;99.90;;;;;;4990405;28;20413;-85
2022/10/23 03:53:00;;;;;;;26.90;16.60;;;10.70;99.90;;;;;;4972574;28;20113;-85
2022/10/23 03:55:28;;;;;;;32.85;17.88;;;10.70;99.90;;;;;;4987271;28;20039;-86
2022/10/23 03:57:54;;;;;;;28.02;17.17;;;10.70;99.90;;;;;;4975473;28;20073;-85
2022/10/23 04:00:21;;;;;;;24.42;15.93;;;10.70;99.90;;;;;;4974688;28;20042;-84
2022/10/23 04:02:49;;;;;;;22.90;17.15;;;10.60;99.90;;;;;;4991420;28;20120;-85
2022/10/23 04:05:17;;;;;;;25.98;15.48;;;10.70;99.90;;;;;;4955204;28;20107;-85
2022/10/23 04:07:43;;;;;;;25.50;15.52;;;10.70;99.90;;;;;;4989680;28;20050;-85
2022/10/23 04:10:09;;;;;;;23.58;16.45;;;10.70;99.90;;;;;;4969879;28;20099;-85
2022/10/23 04:12:34;;;;;;;26.02;16.75;;;10.60;99.90;;;;;;4972633;28;20419;-84
2022/10/23 04:15:00;;;;;;;28.80;15.90;;;10.60;99.90;;;;;;4969539;28;20034;-84
2022/10/23 04:17:27;;;;;;;28.13;17.70;;;10.60;99.90;;;;;;4974235;28;20526;-84
2022/10/23 04:19:57;;;;;;;29.80;17.83;;;11.50;99.90;;;;;;5002778;28;20041;-84
2022/10/23 04:22:29;;;;;;;29.40;18.13;;;10.50;99.90;;;;;;4986977;28;20465;-88
2022/10/23 04:24:55;;;;;;;26.25;17.40;;;10.60;99.90;;;;;;4976030;28;20686;-85
2022/10/23 04:27:20;;;;;;;30.02;19.73;;;10.70;99.90;;;;;;4969604;28;20038;-84
2022/10/23 04:29:48;;;;;;;19.60;16.15;;;10.60;99.90;;;;;;4987846;28;20034;-85
2022/10/23 04:32:13;;;;;;;19.33;14.32;;;11.10;99.90;;;;;;4990385;28;20119;-84
2022/10/23 04:34:39;;;;;;;18.17;13.88;;;10.60;99.90;;;;;;4969192;28;20077;-84
2022/10/23 04:37:07;;;;;;;23.70;15.48;;;10.50;99.90;;;;;;4986784;28;20046;-84
2022/10/23 04:39:33;;;;;;;18.58;13.48;;;10.50;99.90;;;;;;5003031;28;20034;-84
2022/10/23 04:41:59;;;;;;;21.15;15.05;;;10.50;99.90;;;;;;4972447;28;20055;-85
2022/10/23 04:44:27;;;;;;;23.00;15.65;;;10.50;99.90;;;;;;4988808;28;20033;-87
2022/10/23 04:46:52;;;;;;;20.55;15.50;;;10.50;99.90;;;;;;4978252;28;20038;-85
2022/10/23 04:49:18;;;;;;;20.10;15.75;;;10.60;99.90;;;;;;4986875;28;20056;-84
2022/10/23 04:51:43;;;;;;;23.45;15.55;;;10.70;99.90;;;;;;4971277;28;20485;-84
2022/10/23 04:54:09;;;;;;;30.23;18.05;;;10.40;99.90;;;;;;4971541;28;20038;-84
2022/10/23 04:56:35;;;;;;;21.23;15.80;;;10.40;99.90;;;;;;4971389;28;20045;-85
2022/10/23 04:59:14;;;;;;;24.17;17.85;;;11.10;99.90;;;;;;4986134;28;20401;-84
2022/10/23 05:01:39;;;;;;;27.40;18.80;;;10.80;99.90;;;;;;4972829;28;20049;-85
2022/10/23 05:04:05;;;;;;;30.30;19.52;;;10.50;99.90;;;;;;4991656;28;20038;-85
2022/10/23 05:06:30;;;;;;;27.02;17.88;;;10.50;99.90;;;;;;4984619;28;20045;-87
2022/10/23 05:08:56;;;;;;;28.90;20.40;;;10.70;99.90;;;;;;4988402;28;20046;-85
2022/10/23 05:11:21;;;;;;;31.63;18.52;;;10.50;99.90;;;;;;4978015;28;20033;-85
2022/10/23 05:13:47;;;;;;;25.63;18.60;;;10.50;99.90;;;;;;5007821;28;20413;-84
2022/10/23 05:16:38;;;;;;;29.92;19.90;;;10.50;99.90;;;;;;4991806;28;20034;-85
2022/10/23 05:19:09;;;;;;;33.40;20.27;;;10.50;99.90;;;;;;4987185;28;20042;-85
2022/10/23 05:21:36;;;;;;;30.42;20.00;;;10.50;99.90;;;;;;4998786;28;20410;-84
2022/10/23 05:24:02;;;;;;;28.35;19.02;;;10.60;99.90;;;;;;4988929;28;20050;-84
2022/10/23 05:26:29;;;;;;;28.60;19.23;;;10.50;99.90;;;;;;4990939;28;20033;-84
2022/10/23 05:28:55;;;;;;;28.70;19.65;;;10.50;99.90;;;;;;4976079;28;20077;-87
2022/10/23 05:31:22;;;;;;;33.72;20.30;;;10.40;99.90;;;;;;4991755;28;20081;-85
2022/10/23 05:33:48;;;;;;;32.15;18.50;;;10.50;99.90;;;;;;4976752;28;20034;-84
2022/10/23 05:36:15;;;;;;;30.42;19.38;;;10.50;99.90;;;;;;4992509;28;21211;-85
2022/10/23 05:38:41;;;;;;;29.17;18.35;;;10.50;99.90;;;;;;4986703;28;20045;-84
2022/10/23 05:41:07;;;;;;;26.20;19.30;;;10.40;99.90;;;;;;4979945;28;20034;-85
2022/10/23 05:43:32;;;;;;;35.28;20.60;;;10.50;99.90;;;;;;4995057;28;20045;-88
2022/10/23 05:45:58;;;;;;;35.28;20.60;;;10.50;99.90;;;;;;4989132;28;20469;-86
2022/10/23 05:56:08;;;;;;;29.30;19.48;;;10.30;99.90;;;;;;4986852;28;20048;-87
2022/10/23 06:06:49;;;;;;;31.27;20.27;;;10.30;99.90;;;;;;4948491;28;20044;-86
2022/10/23 06:09:21;;;;;;;32.40;19.90;;;10.30;99.90;;;;;;4946641;28;20133;-86
2022/10/23 06:23:51;;;;;;;25.83;18.58;;;10.30;99.90;;;;;;4914682;29;20043;-87
2022/10/23 06:27:09;;;;;;;29.02;19.58;;;10.40;99.90;;;;;;4908668;29;20055;-86
2022/10/23 06:30:23;;;;;;;33.15;19.75;;;10.40;99.90;;;;;;4895834;29;20193;-86
2022/10/23 06:41:19;;;;;;;31.27;18.55;;;10.40;99.90;;;;;;4912390;29;20416;-86
2022/10/23 06:44:12;;;;;;;27.90;19.40;;;10.40;99.90;;;;;;4839131;29;20139;-86
2022/10/23 06:46:50;;;;;;;26.65;18.73;;;10.40;99.90;;;;;;4936398;28;20109;-86
2022/10/23 06:49:16;;;;;;;34.97;18.55;;;10.50;99.90;;;;;;5005875;28;20042;-87
2022/10/23 06:51:42;;;;;;;30.10;20.38;;;10.50;99.90;;;;;;4977315;28;20510;-87
2022/10/23 06:54:09;;;;;;;23.70;17.60;;;10.70;99.90;;;;;;4986010;28;20057;-86
2022/10/23 06:56:35;;;;;;;23.40;17.55;;;10.50;99.90;;;;;;4993533;28;20046;-88
2022/10/23 06:59:01;;;;;;;29.38;17.60;;;10.50;99.90;;;;;;4958009;28;20522;-85
2022/10/23 07:01:29;;;;;;;23.42;16.02;;;10.60;99.90;;;;;;4964258;28;20057;-86
2022/10/23 07:03:54;;;;;;;27.63;17.50;;;10.60;99.90;;;;;;4989289;28;20041;-86
2022/10/23 07:06:20;;;;;;;27.27;17.77;;;10.70;99.90;;;;;;4978228;28;20041;-85
2022/10/23 07:08:46;;;;;;;22.65;17.05;;;10.70;99.90;;;;;;4984325;28;20044;-84
2022/10/23 07:11:12;;;;;;;30.15;19.45;;;10.70;99.90;;;;;;4992351;28;20038;-85
2022/10/23 07:13:39;;;;;;;25.85;17.45;;;10.70;99.90;;;;;;4977861;28;20034;-87
2022/10/23 07:16:18;;;;;;;27.98;18.38;;;10.70;99.90;;;;;;4974019;28;20042;-88
2022/10/23 07:18:45;;;;;;;27.27;16.60;;;10.80;99.90;;;;;;4980711;28;20048;-83
2022/10/23 07:21:11;;;;;;;29.60;16.77;;;10.90;99.90;;;;;;4986470;28;20046;-85
2022/10/23 07:23:37;;;;;;;26.70;17.27;;;11.00;99.90;;;;;;4987143;28;20050;-84
2022/10/23 07:26:13;;;;;;;21.13;15.70;;;10.90;99.90;;;;;;4989088;28;20050;-85
2022/10/23 07:28:47;;;;;;;20.73;16.10;;;11.40;99.90;;;;;;4981968;28;20038;-85
2022/10/23 07:31:22;;;;;;;20.30;15.30;;;11.00;99.90;;;;;;4972294;28;20030;-86
2022/10/23 07:33:57;;;;;;;24.13;15.88;;;11.10;99.90;;;;;;4974372;28;20076;-86
2022/10/23 07:36:29;;;;;;;24.45;16.48;;;11.20;99.90;;;;;;4994911;28;20045;-86
2022/10/23 07:42:55;;;;;;;17.63;13.68;;;11.20;99.90;;;;;;4987290;28;20105;-87
2022/10/23 07:45:27;;;;;;;19.25;14.60;;;11.30;99.90;;;;;;4965121;28;20053;-87
2022/10/23 07:47:53;;;;;;;21.80;14.27;;;11.30;99.90;;;;;;4941943;28;20047;-85
2022/10/23 07:50:18;;;;;;;19.35;14.18;;;11.40;99.90;;;;;;4972670;28;20077;-84
2022/10/23 07:52:44;;;;;;;23.80;14.80;;;11.40;99.90;;;;;;4989809;28;20041;-85
2022/10/23 07:55:11;;;;;;;23.63;14.00;;;11.40;99.90;;;;;;4985466;28;20073;-87
2022/10/23 07:57:38;;;;;;;21.02;13.40;;;11.50;99.90;;;;;;5007315;28;20038;-84
2022/10/23 08:00:05;;;;;;;25.27;13.15;;;11.50;99.90;;;;;;4971142;28;20042;-84
2022/10/23 08:02:31;;;;;;;18.52;13.07;;;11.50;99.90;;;;;;4987724;28;20038;-86
2022/10/23 08:04:56;;;;;;;19.67;12.63;;;11.60;99.90;;;;;;4987184;28;20034;-85
2022/10/23 08:07:22;;;;;;;24.02;12.77;;;11.60;99.90;;;;;;4976043;28;20066;-86
2022/10/23 08:09:47;;;;;;;17.02;12.15;;;11.70;99.90;;;;;;4988224;28;20112;-84
2022/10/23 08:12:13;;;;;;;17.88;11.93;;;11.70;99.90;;;;;;4989421;28;20109;-85
2022/10/23 08:14:39;;;;;;;19.77;11.15;;;11.80;99.90;;;;;;4975660;28;20053;-85
2022/10/23 08:17:08;;;;;;;20.00;12.35;;;11.80;99.90;;;;;;4988624;28;20192;-84
2022/10/23 08:19:34;;;;;;;20.88;13.20;;;11.90;99.90;;;;;;4987116;28;20104;-84
2022/10/23 08:22:00;;;;;;;23.60;12.35;;;11.90;99.90;;;;;;4975155;28;20087;-85
2022/10/23 08:24:29;;;;;;;18.40;12.23;;;11.90;99.90;;;;;;4997247;28;20125;-87
2022/10/23 08:26:54;;;;;;;18.27;11.57;;;12.10;99.90;;;;;;4984722;28;20106;-83
2022/10/23 08:29:20;;;;;;;14.38;10.13;;;12.10;99.90;;;;;;4986954;28;20061;-86
2022/10/23 08:32:08;;;;;;;21.35;9.82;;;12.20;99.90;;;;;;4984118;28;20072;-86
2022/10/23 08:45:55;;;;;;;12.20;7.75;;;12.60;99.90;;;;;;4970439;28;20081;-82
2022/10/23 08:48:33;;;;;;;10.57;6.80;;;12.60;99.90;;;;;;4938215;29;20039;-82
2022/10/23 08:51:13;;;;;;;16.77;8.20;;;12.70;99.90;;;;;;4934342;29;20071;-83
2022/10/23 08:54:03;;;;;;;13.77;7.97;;;12.80;99.90;;;;;;4962451;28;20078;-84
2022/10/23 08:56:34;;;;;;;14.88;8.32;;;12.80;99.90;;;;;;4987683;28;20046;-83
2022/10/23 08:59:10;;;;;;;12.30;7.45;;;12.90;99.90;;;;;;4973893;28;20050;-83
2022/10/23 09:01:54;;;;;;;13.02;7.85;;;13.10;99.90;;;;;;4969596;28;20057;-83
2022/10/23 09:04:20;;;;;;;15.35;6.65;;;13.00;99.90;;;;;;4988860;28;20045;-82
2022/10/23 09:07:34;;;;;;;11.27;6.63;;;13.10;99.90;;;;;;4970142;28;20715;-82
2022/10/23 09:10:00;;;;;;;8.60;6.60;;;13.20;99.90;;;;;;4930193;28;20050;-83
2022/10/23 09:12:29;;;;;;;10.70;6.68;;;13.20;99.90;;;;;;4965867;28;20038;-82
2022/10/23 09:15:07;;;;;;;11.10;6.32;;;13.40;99.90;;;;;;4970408;28;20502;-83
2022/10/23 09:17:36;;;;;;;11.45;5.60;;;13.40;99.90;;;;;;4966363;28;20045;-83
2022/10/23 09:20:21;;;;;;;12.93;6.22;;;13.50;99.90;;;;;;4968261;28;20038;-85
2022/10/23 09:22:58;;;;;;;11.50;5.37;;;13.50;99.90;;;;;;4953898;28;20046;-84
2022/10/23 09:25:31;;;;;;;11.90;6.53;;;13.60;99.90;;;;;;4983638;28;20039;-83
2022/10/23 09:27:58;;;;;;;10.95;5.65;;;13.60;99.90;;;;;;4986757;28;20743;-82
2022/10/23 09:30:31;;;;;;;10.30;5.57;;;13.70;99.90;;;;;;4970039;28;20129;-83
2022/10/23 09:32:58;;;;;;;8.88;4.63;;;13.80;99.90;;;;;;4953454;28;20049;-83
2022/10/23 09:35:29;;;;;;;11.50;5.03;;;13.80;99.90;;;;;;4967463;28;20041;-86
2022/10/23 09:37:56;;;;;;;11.95;4.80;;;14.00;99.90;;;;;;4958026;28;20097;-83
2022/10/23 09:40:26;;;;;;;13.05;5.68;;;14.00;99.90;;;;;;4969106;28;20394;-83
2022/10/23 09:42:55;;;;;;;6.85;4.25;;;14.00;99.90;;;;;;4956959;28;20084;-84
2022/10/23 09:45:33;;;;;;;9.80;4.78;;;14.00;99.90;;;;;;4966123;28;20541;-83
2022/10/23 09:48:24;;;;;;;15.55;6.00;;;14.10;99.90;;;;;;4968600;28;20120;-85
2022/10/23 09:50:59;;;;;;;16.80;6.93;;;14.20;99.90;;;;;;4985824;28;20567;-82
2022/10/23 09:53:37;;;;;;;14.82;5.28;;;14.20;99.90;;;;;;4983815;28;20113;-84
2022/10/23 09:56:38;;;;;;;11.77;4.93;;;14.20;99.90;;;;;;4984427;28;20062;-83
2022/10/23 09:59:10;;;;;;;6.63;4.13;;;14.30;99.90;;;;;;4985400;28;20046;-83
2022/10/23 10:01:48;;;;;;;13.02;4.28;;;14.30;99.90;;;;;;4967400;28;20408;-83
2022/10/23 10:04:14;;;;;;;5.78;4.45;;;14.50;99.90;;;;;;4986781;28;20053;-81
2022/10/23 10:06:41;;;;;;;6.70;4.15;;;14.50;99.90;;;;;;4986010;28;20034;-83
2022/10/23 10:09:15;;;;;;;10.43;4.50;;;14.60;99.90;;;;;;4987752;28;20125;-82
2022/10/23 10:11:52;;;;;;;5.80;3.78;;;14.60;99.90;;;;;;4987675;28;20041;-82
2022/10/23 10:14:36;;;;;;;13.10;4.30;;;14.70;99.90;;;;;;4982287;28;20042;-83
2022/10/23 10:17:19;;;;;;;9.20;4.10;;;14.80;99.90;;;;;;4983026;28;20510;-84
2022/10/23 10:20:12;;;;;;;7.53;3.70;;;14.80;99.90;;;;;;4973127;28;20619;-82
2022/10/23 10:22:43;;;;;;;10.02;3.88;;;15.00;99.90;;;;;;4999046;28;20462;-83
2022/10/23 10:25:19;;;;;;;8.85;4.03;;;15.00;99.90;;;;;;4969346;28;20104;-83
2022/10/23 10:27:55;;;;;;;7.13;3.80;;;15.10;99.90;;;;;;4970873;28;20045;-83
2022/10/23 10:30:22;;;;;;;;;;;15.20;99.90;;;;;;4969666;28;20502;-83
2022/10/23 10:33:15;;;;;;;11.68;4.70;;;15.20;99.90;;;;;;4984741;28;20320;-85
2022/10/23 10:36:12;;;;;;;23.33;6.25;;;15.30;99.90;;;;;;4971511;28;20078;-83
2022/10/23 10:39:02;;;;;;;12.30;4.53;;;15.60;99.90;;;;;;4968410;28;20043;-82
2022/10/23 10:41:40;;;;;;;12.57;4.40;;;15.40;99.90;;;;;;4968037;28;20054;-83
2022/10/23 10:45:04;;;;;;;4.97;3.22;;;15.40;99.90;;;;;;4984124;28;20046;-86
2022/10/23 10:47:40;;;;;;;9.10;2.90;;;15.50;99.90;;;;;;4944881;28;20346;-84
2022/10/23 10:50:13;;;;;;;6.15;3.10;;;15.40;99.90;;;;;;4974301;28;20089;-85
2022/10/23 10:53:13;;;;;;;8.23;3.20;;;15.40;99.90;;;;;;4967631;28;20050;-84
2022/10/23 10:55:45;;;;;;;9.30;3.08;;;15.40;99.90;;;;;;4965273;28;20064;-84
2022/10/23 10:58:42;;;;;;;8.23;3.80;;;15.40;99.90;;;;;;4973720;28;20399;-84
2022/10/23 11:04:52;;;;;;;6.63;3.28;;;15.40;99.90;;;;;;4992911;28;19944;-87
2022/10/23 11:07:22;;;;;;;9.00;3.13;;;15.40;99.90;;;;;;4977131;28;20530;-85
2022/10/23 11:09:52;;;;;;;7.75;3.28;;;15.40;99.90;;;;;;4984001;28;20068;-86
2022/10/23 11:12:26;;;;;;;9.00;3.20;;;15.40;99.90;;;;;;4952122;28;20031;-87
2022/10/23 11:14:52;;;;;;;7.65;3.10;;;15.40;99.90;;;;;;4979767;28;20140;-86
2022/10/23 11:17:25;;;;;;;10.60;3.05;;;15.70;99.90;;;;;;4964420;28;20066;-86
2022/10/23 11:20:18;;;;;;;7.28;3.10;;;15.40;99.90;;;;;;4977557;28;20051;-85
2022/10/23 11:23:30;;;;;;;7.28;2.83;;;15.40;99.90;;;;;;4984181;28;20122;-86
2022/10/23 11:26:50;;;;;;;10.10;2.72;;;15.40;99.90;;;;;;4982975;28;20070;-84
2022/10/23 11:29:21;;;;;;;8.35;2.63;;;15.30;99.90;;;;;;4983152;28;20077;-84
2022/10/23 11:32:02;;;;;;;8.80;3.08;;;15.40;99.90;;;;;;4984611;28;20069;-83
2022/10/23 11:34:46;;;;;;;5.57;2.80;;;15.40;99.90;;;;;;4970170;28;20125;-85
2022/10/23 11:37:19;;;;;;;6.13;2.88;;;15.40;99.90;;;;;;4964833;28;20054;-84
2022/10/23 11:40:05;;;;;;;9.80;2.97;;;15.30;99.90;;;;;;4985117;28;20376;-84
2022/10/23 11:42:49;;;;;;;6.93;2.60;;;15.40;99.90;;;;;;4987816;28;20133;-86
2022/10/23 11:45:29;;;;;;;7.78;3.15;;;15.30;99.90;;;;;;4992094;28;20172;-85
2022/10/23 11:47:58;;;;;;;7.88;3.00;;;15.40;99.90;;;;;;4969745;28;20049;-86
2022/10/23 11:50:29;;;;;;;6.30;2.67;;;15.40;99.90;;;;;;4971489;28;20034;-85
2022/10/23 11:52:59;;;;;;;9.93;3.45;;;15.40;99.90;;;;;;4965062;28;20316;-85
2022/10/23 11:55:31;;;;;;;8.45;2.83;;;15.50;99.90;;;;;;4980460;28;20034;-85
2022/10/23 11:58:25;;;;;;;5.20;2.78;;;15.50;99.90;;;;;;4982713;28;20038;-85
2022/10/23 12:00:56;;;;;;;6.05;2.40;;;15.80;99.90;;;;;;4971832;28;20412;-83
2022/10/23 12:03:42;;;;;;;5.45;2.53;;;15.50;99.90;;;;;;4973175;28;20042;-88
2022/10/23 12:06:24;;;;;;;12.10;2.58;;;15.50;99.90;;;;;;4975745;28;20114;-85
2022/10/23 12:09:20;;;;;;;8.73;2.60;;;15.50;99.90;;;;;;4988343;28;20124;-83
2022/10/23 12:11:50;;;;;;;10.25;2.67;;;15.50;99.90;;;;;;4973473;28;20517;-86
2022/10/23 12:14:34;;;;;;;5.75;2.70;;;15.50;99.90;;;;;;4988308;28;20038;-84
2022/10/23 12:17:00;;;;;;;10.18;2.70;;;15.50;99.90;;;;;;4975119;28;20053;-84
2022/10/23 12:19:43;;;;;;;6.95;2.65;;;15.50;99.90;;;;;;4985045;28;20093;-84
2022/10/23 12:22:13;;;;;;;16.27;2.83;;;16.20;99.90;;;;;;4987428;28;20406;-84
2022/10/23 12:24:47;;;;;;;5.95;2.63;;;15.50;99.90;;;;;;4990556;28;20046;-85
2022/10/23 12:27:27;;;;;;;6.43;2.92;;;15.50;99.90;;;;;;4984375;28;20046;-84
2022/10/23 12:30:38;;;;;;;4.22;2.70;;;15.90;99.90;;;;;;4988412;28;20752;-83
2022/10/23 12:33:18;;;;;;;6.88;2.78;;;15.60;99.90;;;;;;4960886;28;20047;-84
2022/10/23 12:36:25;;;;;;;8.20;2.60;;;15.60;99.90;;;;;;4986264;28;20042;-85
2022/10/23 12:38:52;;;;;;;3.67;2.38;;;15.50;99.90;;;;;;4989335;28;20043;-84
2022/10/23 12:41:26;;;;;;;9.52;2.65;;;15.60;99.90;;;;;;4980010;28;20077;-85
2022/10/23 12:44:09;;;;;;;7.80;2.47;;;15.60;99.90;;;;;;4976231;28;20483;-86
2022/10/23 12:46:45;;;;;;;5.28;2.10;;;15.50;99.90;;;;;;4992812;28;20061;-85
2022/10/23 12:49:18;;;;;;;7.43;1.92;;;15.60;99.90;;;;;;4995176;28;20394;-85
2022/10/23 12:51:44;;;;;;;10.63;2.53;;;15.60;99.90;;;;;;4991147;28;20041;-84
2022/10/23 12:54:20;;;;;;;8.52;2.85;;;15.60;99.90;;;;;;4990088;28;20471;-84
2022/10/23 12:56:46;;;;;;;6.60;2.78;;;15.60;99.90;;;;;;4988110;28;20499;-87
2022/10/23 12:59:36;;;;;;;10.38;2.42;;;15.60;99.90;;;;;;4979266;28;20490;-83
2022/10/23 13:02:32;;;;;;;5.95;2.15;;;15.60;99.90;;;;;;4985320;28;20053;-84
2022/10/23 13:05:08;;;;;;;9.88;2.30;;;15.60;99.90;;;;;;4975311;28;20057;-84
2022/10/23 13:07:46;;;;;;;8.70;2.03;;;15.60;99.90;;;;;;4990826;28;20038;-84
2022/10/23 13:10:17;;;;;;;6.65;2.55;;;16.20;99.90;;;;;;4977265;28;20038;-85
2022/10/23 13:13:23;;;;;;;10.15;2.80;;;15.70;99.90;;;;;;4977785;28;20072;-87
2022/10/23 13:15:50;;;;;;;4.70;2.42;;;15.70;99.90;;;;;;4977101;28;20081;-84
2022/10/23 13:18:16;;;;;;;10.40;2.45;;;15.70;99.90;;;;;;4993642;28;20129;-84
2022/10/23 13:20:52;;;;;;;9.15;2.15;;;15.70;99.90;;;;;;4994454;28;20038;-85
2022/10/23 13:23:30;;;;;;;8.77;2.60;;;15.80;99.90;;;;;;4973283;28;20046;-83
2022/10/23 13:26:09;;;;;;;6.40;2.38;;;15.70;99.90;;;;;;4979381;28;20053;-84
2022/10/23 13:28:43;;;;;;;3.85;1.90;;;15.70;99.90;;;;;;4982945;28;20042;-84
2022/10/23 13:31:12;;;;;;;5.82;1.83;;;15.80;99.90;;;;;;5008864;28;20057;-86
2022/10/23 13:33:47;;;;;;;7.68;1.65;;;15.80;99.90;;;;;;4994776;28;20103;-85
2022/10/23 13:36:26;;;;;;;4.57;1.80;;;15.80;99.90;;;;;;4992341;28;20042;-84
2022/10/23 13:38:57;;;;;;;5.25;2.42;;;16.10;99.90;;;;;;4973272;28;20042;-85
2022/10/23 13:42:03;;;;;;;10.60;2.22;;;15.90;99.90;;;;;;5001937;28;20084;-84
2022/10/23 13:44:36;;;;;;;5.35;2.30;;;15.90;99.90;;;;;;4923854;28;20062;-85
2022/10/23 13:47:39;;;;;;;12.68;2.08;;;16.20;99.90;;;;;;4996901;28;20065;-85
2022/10/23 13:50:06;;;;;;;8.57;2.08;;;16.00;99.90;;;;;;4993062;28;20056;-85
2022/10/23 13:52:40;;;;;;;11.35;1.60;;;15.90;99.90;;;;;;4979119;28;20062;-85
2022/10/23 13:55:49;;;;;;;6.35;2.30;;;15.90;99.90;;;;;;5005587;28;20508;-84
2022/10/23 13:58:15;;;;;;;9.15;2.28;;;15.90;99.90;;;;;;4974586;28;20053;-84
2022/10/23 14:01:41;;;;;;;10.27;2.25;;;15.90;99.90;;;;;;4968134;28;20079;-85
2022/10/23 14:04:08;;;;;;;9.73;2.43;;;15.90;99.90;;;;;;4968217;28;20053;-87
2022/10/23 14:06:36;;;;;;;5.38;1.70;;;15.80;99.90;;;;;;4994312;28;20066;-85